createdAt,value
2019-01-26T00:02:41.710Z,97305.37
2019-01-26T00:07:44.991Z,97302.81
2019-01-26T00:12:48.305Z,97295.97
2019-01-26T00:17:51.492Z,97286.58
2019-01-26T00:22:54.711Z,97272.50
2019-01-26T00:27:57.979Z,97256.71
2019-01-26T00:33:01.230Z,97252.44
2019-01-26T00:38:04.731Z,97251.59
2019-01-26T00:43:08.004Z,97253.62
2019-01-26T00:48:11.287Z,97250.22
2019-01-26T00:53:14.575Z,97247.26
2019-01-26T00:58:17.810Z,97244.59
2019-01-26T01:03:21.053Z,97238.16
2019-01-26T01:08:24.347Z,97243.28
2019-01-26T01:13:27.595Z,97233.47
2019-01-26T01:18:30.834Z,97220.64
2019-01-26T01:23:34.126Z,97212.10
2019-01-26T01:28:37.326Z,97209.55
2019-01-26T01:33:40.519Z,97207.49
2019-01-26T01:38:43.779Z,97203.21
2019-01-26T01:43:46.977Z,97201.92
2019-01-26T01:48:50.234Z,97195.92
2019-01-26T01:53:53.422Z,97176.72
2019-01-26T01:58:56.631Z,97166.49
2019-01-26T02:03:59.954Z,97156.64
2019-01-26T02:09:03.308Z,97155.80
2019-01-26T02:14:06.599Z,97136.21
2019-01-26T02:19:09.797Z,97128.46
2019-01-26T02:24:14.021Z,97122.91
2019-01-26T02:29:17.224Z,97114.38
2019-01-26T02:34:20.590Z,97108.83
2019-01-26T02:39:23.878Z,97090.48
2019-01-26T02:44:27.079Z,97110.11
2019-01-26T02:49:30.276Z,97095.19
2019-01-26T02:54:33.538Z,97095.58
2019-01-26T02:59:36.735Z,97087.47
2019-01-26T03:04:39.933Z,97090.85
2019-01-26T03:09:43.197Z,97080.66
2019-01-26T03:14:46.392Z,97070.41
2019-01-26T03:19:49.576Z,97071.14
2019-01-26T03:24:52.792Z,97069.91
2019-01-26T03:29:56.009Z,97055.02
2019-01-26T03:34:59.292Z,97046.09
2019-01-26T03:40:02.511Z,97044.37
2019-01-26T03:45:06.912Z,97034.53
2019-01-26T03:50:10.990Z,97039.19
2019-01-26T03:55:15.727Z,97037.00
2019-01-26T04:00:21.966Z,97020.77
2019-01-26T04:05:25.158Z,97020.36
2019-01-26T04:10:28.367Z,97009.67
2019-01-26T04:15:31.570Z,96993.48
2019-01-26T04:20:34.770Z,96984.09
2019-01-26T04:25:37.989Z,96981.08
2019-01-26T04:30:41.323Z,96974.23
2019-01-26T04:35:44.631Z,96968.27
2019-01-26T04:40:47.930Z,96963.53
2019-01-26T04:45:51.265Z,96964.41
2019-01-26T04:50:59.864Z,96962.25
2019-01-26T04:56:03.061Z,96957.12
2019-01-26T05:01:06.262Z,96955.91
2019-01-26T05:06:10.413Z,96950.35
2019-01-26T05:11:13.623Z,96943.51
2019-01-26T05:16:16.917Z,96942.27
2019-01-26T05:21:20.151Z,96951.17
2019-01-26T05:26:23.364Z,96948.22
2019-01-26T05:31:26.551Z,96947.77
2019-01-26T05:36:29.756Z,96947.34
2019-01-26T05:41:33.982Z,96954.98
2019-01-26T05:46:37.270Z,96954.09
2019-01-26T05:51:40.516Z,96960.88
2019-01-26T05:56:43.830Z,96951.91
2019-01-26T06:01:47.065Z,96948.91
2019-01-26T06:06:50.357Z,96948.45
2019-01-26T06:11:53.661Z,96940.38
2019-01-26T06:16:57.034Z,96933.60
2019-01-26T06:22:00.222Z,96941.22
2019-01-26T06:27:03.444Z,96939.50
2019-01-26T06:32:06.646Z,96936.91
2019-01-26T06:37:09.838Z,96930.45
2019-01-26T06:42:13.052Z,96935.56
2019-01-26T06:47:16.350Z,96937.27
2019-01-26T06:52:19.538Z,96943.14
2019-01-26T06:57:22.756Z,96947.00
2019-01-26T07:02:25.964Z,96949.03
2019-01-26T07:07:29.166Z,96944.28
2019-01-26T07:12:32.370Z,96939.61
2019-01-26T07:17:35.585Z,96931.89
2019-01-26T07:22:38.885Z,96930.56
2019-01-26T07:27:42.111Z,96936.03
2019-01-26T07:32:45.421Z,96943.64
2019-01-26T07:37:48.618Z,96941.95
2019-01-26T07:42:51.810Z,96943.10
2019-01-26T07:47:55.035Z,96935.77
2019-01-26T07:52:58.330Z,96939.45
2019-01-26T07:58:01.551Z,96932.91
2019-01-26T08:03:04.754Z,96918.00
2019-01-26T08:08:07.950Z,96911.12
2019-01-26T08:13:11.166Z,96902.04
2019-01-26T08:18:14.493Z,96902.74
2019-01-26T08:23:17.806Z,96906.84
2019-01-26T08:28:21.002Z,96914.04
2019-01-26T08:33:24.206Z,96901.17
2019-01-26T08:38:28.900Z,96903.17
2019-01-26T08:43:30.735Z,96894.10
2019-01-26T08:48:33.966Z,96888.02
2019-01-26T08:53:37.221Z,96893.51
2019-01-26T08:58:40.487Z,96896.22
2019-01-26T09:03:47.965Z,96890.77
2019-01-26T09:08:51.283Z,96882.60
2019-01-26T09:13:54.531Z,96878.14
2019-01-26T09:18:57.728Z,96879.41
2019-01-26T09:24:00.923Z,96872.88
2019-01-26T09:29:04.183Z,96881.64
2019-01-26T09:34:07.457Z,96878.56
2019-01-26T09:39:11.368Z,96881.05
2019-01-26T09:44:14.766Z,96869.59
2019-01-26T09:49:17.956Z,96865.70
2019-01-26T09:54:21.208Z,96857.63
2019-01-26T09:59:24.542Z,96858.70
2019-01-26T10:04:27.862Z,96851.38
2019-01-26T10:09:31.080Z,96847.44
2019-01-26T10:14:34.322Z,96844.38
2019-01-26T10:19:37.538Z,96837.41
2019-01-26T10:24:40.859Z,96827.08
2019-01-26T10:29:44.214Z,96821.38
2019-01-26T10:34:47.599Z,96824.86
2019-01-26T10:39:50.928Z,96815.09
2019-01-26T10:44:54.279Z,96814.33
2019-01-26T10:49:57.748Z,96815.33
2019-01-26T10:55:01.070Z,96810.84
2019-01-26T11:00:05.273Z,96815.95
2019-01-26T11:05:08.758Z,96810.56
2019-01-26T11:10:12.307Z,96800.54
2019-01-26T11:15:15.670Z,96784.15
2019-01-26T11:20:18.902Z,96774.91
2019-01-26T11:25:22.115Z,96763.02
2019-01-26T11:30:26.731Z,96749.66
2019-01-26T11:35:30.056Z,96739.67
2019-01-26T11:40:33.351Z,96738.76
2019-01-26T11:45:42.094Z,96730.08
2019-01-26T11:50:47.904Z,96740.41
2019-01-26T11:55:57.646Z,96734.61
2019-01-26T12:01:05.232Z,96727.14
2019-01-26T12:06:16.886Z,96728.20
2019-01-26T12:11:20.171Z,96730.00
2019-01-26T12:16:27.036Z,96715.16
2019-01-26T12:21:26.741Z,96721.56
2019-01-26T12:26:29.974Z,96723.31
2019-01-26T12:31:33.330Z,96715.34
2019-01-26T12:36:36.610Z,96703.63
2019-01-26T12:41:39.910Z,96694.75
2019-01-26T12:46:43.217Z,96687.64
2019-01-26T12:51:46.649Z,96687.88
2019-01-26T12:56:50.024Z,96681.83
2019-01-26T13:01:53.323Z,96682.22
2019-01-26T13:06:56.659Z,96685.45
2019-01-26T13:11:59.987Z,96679.25
2019-01-26T13:17:03.376Z,96679.23
2019-01-26T13:22:06.675Z,96691.05
2019-01-26T13:27:09.986Z,96693.27
2019-01-26T13:32:13.304Z,96690.73
2019-01-26T13:37:16.629Z,96678.33
2019-01-26T13:42:20.146Z,96691.78
2019-01-26T13:47:23.573Z,96691.45
2019-01-26T13:52:26.935Z,96687.07
2019-01-26T13:57:30.217Z,96687.00
2019-01-26T14:02:33.549Z,96695.25
2019-01-26T14:07:36.850Z,96693.83
2019-01-26T14:12:40.148Z,96690.09
2019-01-26T14:17:43.433Z,96691.06
2019-01-26T14:22:46.710Z,96685.68
2019-01-26T14:27:50.195Z,96688.59
2019-01-26T14:32:53.515Z,96689.92
2019-01-26T14:37:56.809Z,96693.11
2019-01-26T14:43:00.149Z,96701.69
2019-01-26T14:48:03.450Z,96699.61
2019-01-26T14:53:06.749Z,96696.02
2019-01-26T14:58:10.366Z,96697.55
2019-01-26T15:03:13.659Z,96697.44
2019-01-26T15:08:17.071Z,96708.11
2019-01-26T15:13:20.402Z,96692.00
2019-01-26T15:18:23.707Z,96700.85
2019-01-26T15:23:26.995Z,96700.45
2019-01-26T15:28:30.288Z,96706.98
2019-01-26T15:33:33.639Z,96698.22
2019-01-26T15:38:36.957Z,96701.91
2019-01-26T15:43:40.306Z,96708.09
2019-01-26T15:48:43.638Z,96705.42
2019-01-26T15:53:46.941Z,96694.47
2019-01-26T15:58:50.252Z,96688.80
2019-01-26T16:03:53.565Z,96693.05
2019-01-26T16:08:56.923Z,96689.92
2019-01-26T16:14:00.331Z,96686.97
2019-01-26T16:19:03.693Z,96684.77
2019-01-26T16:24:06.989Z,96681.05
2019-01-26T16:29:10.350Z,96679.30
2019-01-26T16:34:13.681Z,96672.40
2019-01-26T16:39:16.969Z,96670.24
2019-01-26T16:44:20.344Z,96677.45
2019-01-26T16:49:23.642Z,96677.95
2019-01-26T16:54:26.950Z,96670.84
2019-01-26T16:59:30.262Z,96675.36
2019-01-26T17:04:33.591Z,96671.63
2019-01-26T17:09:36.885Z,96668.41
2019-01-26T17:14:40.211Z,96672.70
2019-01-26T17:19:43.527Z,96676.20
2019-01-26T17:24:47.890Z,96670.33
2019-01-26T17:29:51.257Z,96658.34
2019-01-26T17:34:54.615Z,96664.09
2019-01-26T17:39:57.948Z,96666.27
2019-01-26T17:45:01.341Z,96654.71
2019-01-26T17:50:05.109Z,96646.89
2019-01-26T17:55:09.302Z,96652.56
2019-01-26T18:00:15.578Z,96645.15
2019-01-26T18:05:18.927Z,96645.60
2019-01-26T18:10:22.470Z,96644.64
2019-01-26T18:15:25.767Z,96633.39
2019-01-26T18:20:29.197Z,96630.42
2019-01-26T18:25:34.805Z,96630.05
2019-01-26T18:30:39.553Z,96626.42
2019-01-26T18:35:42.855Z,96614.92
2019-01-26T18:40:46.206Z,96626.43
2019-01-26T18:45:49.519Z,96617.91
2019-01-26T18:50:56.357Z,96611.19
2019-01-26T18:55:56.213Z,96609.11
2019-01-26T19:00:59.508Z,96611.11
2019-01-26T19:06:03.074Z,96600.72
2019-01-26T19:11:08.007Z,96596.19
2019-01-26T19:16:11.796Z,96588.72
2019-01-26T19:21:15.613Z,96586.33
2019-01-26T19:26:19.253Z,96583.73
2019-01-26T19:31:22.749Z,96575.72
2019-01-26T19:36:26.670Z,96569.46
2019-01-26T19:41:30.487Z,96565.75
2019-01-26T19:46:34.227Z,96557.58
2019-01-26T19:51:37.945Z,96556.43
2019-01-26T19:56:41.354Z,96546.63
2019-01-26T20:01:44.731Z,96547.78
2019-01-26T20:06:48.033Z,96537.22
2019-01-26T20:11:51.403Z,96536.17
2019-01-26T20:16:54.776Z,96535.98
2019-01-26T20:21:58.256Z,96531.14
2019-01-26T20:27:02.487Z,96533.27
2019-01-26T20:32:05.934Z,96531.20
2019-01-26T20:37:09.335Z,96518.36
2019-01-26T20:42:12.702Z,96512.36
2019-01-26T20:47:16.234Z,96507.64
2019-01-26T20:52:19.587Z,96499.28
2019-01-26T20:57:22.981Z,96491.06
2019-01-26T21:02:26.374Z,96481.33
2019-01-26T21:07:30.018Z,96482.49
2019-01-26T21:12:33.351Z,96478.63
2019-01-26T21:17:36.693Z,96473.01
2019-01-26T21:22:40.132Z,96463.30
2019-01-26T21:27:43.501Z,96469.07
2019-01-26T21:32:46.914Z,96461.09
2019-01-26T21:37:50.651Z,96448.20
2019-01-26T21:42:54.325Z,96455.15
2019-01-26T21:47:57.948Z,96446.44
2019-01-26T21:53:01.541Z,96434.00
2019-01-26T21:58:05.261Z,96428.58
2019-01-26T22:03:08.841Z,96426.72
2019-01-26T22:08:12.444Z,96418.20
2019-01-26T22:13:16.116Z,96420.35
2019-01-26T22:18:19.655Z,96401.53
2019-01-26T22:23:23.347Z,96399.33
2019-01-26T22:28:27.208Z,96384.68
2019-01-26T22:33:31.081Z,96384.57
2019-01-26T22:38:35.194Z,96379.20
2019-01-26T22:43:38.023Z,96371.73
2019-01-26T22:48:41.319Z,96370.70
2019-01-26T22:53:44.679Z,96366.05
2019-01-26T22:58:47.978Z,96358.32
2019-01-26T23:06:06.159Z,96346.14
2019-01-26T23:11:20.624Z,96333.14
2019-01-26T23:16:33.855Z,96319.27
2019-01-26T23:21:51.014Z,96311.16
2019-01-26T23:28:11.393Z,96300.86
2019-01-26T23:33:14.577Z,96280.09
2019-01-26T23:38:17.869Z,96266.33
2019-01-26T23:43:21.090Z,96250.91
2019-01-26T23:48:24.330Z,96244.10
2019-01-26T23:53:27.611Z,96243.08
2019-01-26T23:58:30.790Z,96235.91
